Time;durP1;ratioP1;P1;durP2;ratioP2;P2;SDS_P1;SDS_P2;PMS_P1;PMS_P2;Temp;Humidity;BMP_temperature;BMP_pressure;BME280_temperature;BME280_humidity;BME280_pressure;Samples;Min_cycle;Max_cycle;Signal;HPM_P1;HPM_P2
2023/08/31 00:02:16;;;;;;;0.20;0.20;;;;;;;18.62;66.11;100762.53;5050178;28;20016;-66
2023/08/31 00:04:41;;;;;;;0.10;0.10;;;;;;;19.00;64.73;100762.59;5062545;28;20020;-66
2023/08/31 00:07:07;;;;;;;0.20;0.20;;;;;;;19.37;63.80;100753.06;5066459;28;20049;-65
2023/08/31 00:09:32;;;;;;;0.20;0.20;;;;;;;18.98;65.04;100750.34;5050107;28;20086;-66
2023/08/31 00:11:58;;;;;;;0.10;0.10;;;;;;;19.57;62.93;100748.28;5049960;28;20123;-65
2023/08/31 00:14:25;;;;;;;0.10;0.10;;;;;;;19.48;62.41;100755.44;5050155;28;20078;-65
2023/08/31 00:16:51;;;;;;;0.20;0.20;;;;;;;19.18;64.14;100758.38;5050532;28;20047;-66
2023/08/31 00:19:16;;;;;;;0.17;0.17;;;;;;;18.83;65.72;100753.19;5050088;28;20550;-66
2023/08/31 00:21:42;;;;;;;0.15;0.15;;;;;;;19.23;65.13;100753.69;5050240;28;20144;-67
2023/08/31 00:24:09;;;;;;;0.10;0.10;;;;;;;18.86;66.14;100752.59;5049944;28;20036;-67
2023/08/31 00:26:40;;;;;;;0.10;0.10;;;;;;;19.23;64.97;100761.88;5050172;28;20576;-66
2023/08/31 00:29:05;;;;;;;;;;;;;;;18.94;65.92;100761.00;5051331;28;20440;-65
2023/08/31 00:31:31;;;;;;;0.20;0.20;;;;;;;18.08;69.18;100754.28;5049696;28;20012;-67
2023/08/31 00:33:56;;;;;;;0.10;0.10;;;;;;;18.11;68.70;100760.00;5049845;28;20040;-64
2023/08/31 00:36:21;;;;;;;0.10;0.10;;;;;;;18.45;68.40;100762.06;5049874;28;20033;-65
2023/08/31 00:38:47;;;;;;;0.20;0.20;;;;;;;18.83;67.20;100748.53;5049292;28;20098;-65
2023/08/31 00:41:12;;;;;;;0.20;0.20;;;;;;;18.92;67.23;100763.19;5064005;28;20036;-66
2023/08/31 00:43:38;;;;;;;0.10;0.10;;;;;;;19.09;65.89;100769.06;5049758;28;20028;-67
2023/08/31 00:46:04;;;;;;;0.10;0.10;;;;;;;18.96;66.66;100774.31;5049896;28;20091;-66
2023/08/31 00:48:29;;;;;;;0.20;0.20;;;;;;;18.97;66.65;100771.31;5049406;28;20039;-67
2023/08/31 00:50:55;;;;;;;0.10;0.10;;;;;;;19.19;66.02;100795.41;5049620;28;20060;-66
2023/08/31 00:53:21;;;;;;;0.20;0.20;;;;;;;18.61;67.98;100790.84;5049329;28;20032;-66
2023/08/31 00:55:47;;;;;;;0.20;0.20;;;;;;;18.64;68.55;100785.66;5049789;28;20029;-66
2023/08/31 00:58:13;;;;;;;0.20;0.20;;;;;;;18.22;70.58;100796.16;5049523;28;20080;-66
2023/08/31 01:01:14;;;;;;;0.10;0.10;;;;;;;17.98;71.68;100797.81;5049251;28;20041;-63
2023/08/31 01:03:58;;;;;;;;;;;;;;;18.62;69.77;100790.56;5049732;28;20033;-63
2023/08/31 01:06:47;;;;;;;0.10;0.10;;;;;;;17.90;73.06;100784.78;5049194;28;20388;-64
2023/08/31 01:09:30;;;;;;;0.20;0.20;;;;;;;18.21;71.60;100768.13;4979296;28;20511;-64
2023/08/31 01:12:05;;;;;;;0.20;0.20;;;;;;;17.83;73.82;100762.50;4986869;28;20035;-65
2023/08/31 01:14:47;;;;;;;0.20;0.20;;;;;;;17.42;74.82;100753.53;4987091;28;20152;-66
2023/08/31 01:17:15;;;;;;;0.15;0.15;;;;;;;17.98;73.02;100748.88;4987180;28;20049;-64
2023/08/31 01:19:55;;;;;;;0.20;0.20;;;;;;;18.23;71.93;100741.47;4987633;28;20038;-64
2023/08/31 01:22:43;;;;;;;0.20;0.20;;;;;;;18.86;69.11;100739.81;4986888;28;20038;-64
2023/08/31 01:25:09;;;;;;;0.20;0.20;;;;;;;18.69;68.88;100728.44;4986853;28;20085;-65
2023/08/31 01:27:36;;;;;;;0.10;0.10;;;;;;;18.51;68.64;100731.84;4987189;28;20046;-65
2023/08/31 01:30:04;;;;;;;0.17;0.17;;;;;;;18.57;68.92;100729.91;4986929;28;20041;-65
2023/08/31 01:32:29;;;;;;;0.30;0.30;;;;;;;18.36;69.54;100732.69;4986341;28;20096;-64
2023/08/31 01:34:57;;;;;;;0.20;0.20;;;;;;;17.44;73.27;100740.50;4987366;28;20482;-65
2023/08/31 01:37:32;;;;;;;0.10;0.10;;;;;;;17.36;74.42;100736.44;4968228;28;20085;-64
2023/08/31 01:40:25;;;;;;;0.20;0.20;;;;;;;18.00;71.40;100733.94;4966758;28;20201;-65
2023/08/31 01:42:50;;;;;;;0.20;0.20;;;;;;;18.37;68.33;100722.63;4961795;28;20049;-64
2023/08/31 01:45:20;;;;;;;0.10;0.10;;;;;;;17.70;70.51;100734.00;4980006;28;20042;-64
2023/08/31 01:47:46;;;;;;;0.30;0.30;;;;;;;18.15;69.43;100720.28;5048604;28;20043;-64
2023/08/31 01:50:12;;;;;;;0.20;0.20;;;;;;;17.81;69.08;100732.88;5048903;28;20464;-65
2023/08/31 01:52:37;;;;;;;0.17;0.17;;;;;;;17.99;68.55;100728.75;5030937;28;20041;-65
2023/08/31 01:55:04;;;;;;;0.15;0.15;;;;;;;17.96;68.56;100726.59;5048467;28;20516;-65
2023/08/31 01:57:29;;;;;;;0.10;0.10;;;;;;;17.84;69.36;100710.59;5034874;28;20086;-64
2023/08/31 01:59:54;;;;;;;0.17;0.17;;;;;;;18.36;66.45;100701.94;5028522;28;20033;-64
2023/08/31 02:02:20;;;;;;;0.10;0.10;;;;;;;18.50;67.06;100715.78;5028515;28;20026;-64
2023/08/31 02:04:46;;;;;;;0.10;0.10;;;;;;;18.37;67.73;100718.00;5028896;28;20033;-64
2023/08/31 02:07:11;;;;;;;0.20;0.20;;;;;;;18.85;65.98;100721.81;5028542;28;20168;-64
2023/08/31 02:09:36;;;;;;;0.20;0.20;;;;;;;19.10;65.30;100720.84;5028288;28;20045;-65
2023/08/31 02:12:02;;;;;;;0.10;0.10;;;;;;;19.02;64.74;100718.72;5028275;28;20045;-63
2023/08/31 02:14:29;;;;;;;0.20;0.20;;;;;;;18.87;65.67;100716.91;5028424;28;20030;-64
2023/08/31 02:16:55;;;;;;;0.15;0.15;;;;;;;19.08;65.44;100715.69;5028908;28;20052;-64
2023/08/31 02:19:20;;;;;;;0.10;0.10;;;;;;;18.88;65.48;100728.63;5028599;28;20037;-64
2023/08/31 02:21:45;;;;;;;0.20;0.20;;;;;;;18.55;66.99;100726.66;5028785;28;20025;-64
2023/08/31 02:24:11;;;;;;;0.15;0.15;;;;;;;18.54;67.47;100734.00;5028114;28;20047;-64
2023/08/31 02:26:37;;;;;;;0.10;0.10;;;;;;;18.15;68.50;100731.16;5028295;28;20493;-64
2023/08/31 02:29:03;;;;;;;0.20;0.20;;;;;;;18.35;68.40;100730.25;5029279;28;20071;-64
2023/08/31 02:31:28;;;;;;;0.20;0.20;;;;;;;18.14;67.85;100726.78;5028153;28;20057;-64
2023/08/31 02:33:53;;;;;;;0.20;0.20;;;;;;;19.05;65.07;100721.69;5028673;28;20079;-64
2023/08/31 02:36:20;;;;;;;0.10;0.10;;;;;;;18.68;66.40;100726.84;5032013;28;20378;-64
2023/08/31 02:38:46;;;;;;;0.10;0.10;;;;;;;17.72;69.71;100733.72;5041024;28;20412;-64
2023/08/31 02:41:11;;;;;;;0.17;0.17;;;;;;;17.96;69.40;100740.19;5031908;28;20030;-64
2023/08/31 02:43:37;;;;;;;0.15;0.15;;;;;;;17.49;70.55;100738.63;5035433;28;20473;-65
2023/08/31 02:46:03;;;;;;;0.10;0.10;;;;;;;18.44;67.74;100738.69;5051755;28;20049;-65
2023/08/31 02:48:29;;;;;;;0.20;0.20;;;;;;;18.52;67.44;100728.00;5052165;28;20041;-65
2023/08/31 02:50:57;;;;;;;0.10;0.10;;;;;;;18.11;68.82;100731.97;5052072;28;20060;-65
2023/08/31 02:53:22;;;;;;;0.20;0.20;;;;;;;18.52;66.83;100732.63;5051257;28;20551;-66
2023/08/31 02:55:50;;;;;;;0.13;0.13;;;;;;;18.65;65.66;100735.59;5051936;28;20040;-64
2023/08/31 02:58:16;;;;;;;0.20;0.20;;;;;;;18.55;65.80;100734.81;5051723;28;20033;-64
2023/08/31 03:00:42;;;;;;;0.13;0.13;;;;;;;17.91;68.49;100735.56;5051379;28;20378;-65
2023/08/31 03:03:08;;;;;;;0.20;0.20;;;;;;;17.99;68.49;100728.75;5013604;28;20092;-65
2023/08/31 03:05:33;;;;;;;0.10;0.10;;;;;;;18.30;67.16;100733.81;5031770;28;20476;-64
2023/08/31 03:07:59;;;;;;;0.15;0.15;;;;;;;18.04;67.39;100734.97;5032060;28;20397;-64
2023/08/31 03:10:24;;;;;;;0.20;0.20;;;;;;;17.58;70.69;100738.88;5031350;28;20403;-65
2023/08/31 03:12:50;;;;;;;0.10;0.10;;;;;;;18.38;66.57;100740.56;5031530;28;20033;-64
2023/08/31 03:15:15;;;;;;;0.20;0.20;;;;;;;17.60;69.75;100739.44;5031455;28;20512;-64
2023/08/31 03:17:41;;;;;;;0.10;0.10;;;;;;;17.88;68.97;100741.56;5031534;28;20045;-64
2023/08/31 03:20:07;;;;;;;0.10;0.10;;;;;;;17.63;70.33;100744.31;5031495;28;20071;-65
2023/08/31 03:22:32;;;;;;;0.20;0.20;;;;;;;17.71;69.48;100754.63;5031813;28;20022;-66
2023/08/31 03:24:58;;;;;;;0.10;0.10;;;;;;;17.75;70.08;100744.84;5031224;28;20045;-64
2023/08/31 03:27:23;;;;;;;0.10;0.10;;;;;;;17.76;70.39;100743.75;5013393;28;20056;-64
2023/08/31 03:29:48;;;;;;;0.30;0.30;;;;;;;17.23;72.03;100753.28;5031089;28;20583;-65
2023/08/31 03:32:14;;;;;;;0.20;0.20;;;;;;;17.20;73.08;100758.41;5030785;28;20029;-65
2023/08/31 03:34:39;;;;;;;0.10;0.10;;;;;;;17.44;71.00;100744.03;5031523;28;20032;-66
2023/08/31 03:37:05;;;;;;;0.20;0.20;;;;;;;17.60;71.35;100744.88;5031021;28;20430;-65
2023/08/31 03:39:30;;;;;;;0.10;0.10;;;;;;;17.35;72.03;100753.00;5030629;28;20058;-65
2023/08/31 03:41:55;;;;;;;0.10;0.10;;;;;;;17.57;71.39;100741.88;5030718;28;20033;-65
2023/08/31 03:44:21;;;;;;;0.10;0.10;;;;;;;18.39;68.13;100743.03;5030648;28;20028;-65
2023/08/31 03:46:47;;;;;;;0.20;0.20;;;;;;;17.51;71.60;100749.25;5031007;28;20018;-65
2023/08/31 03:49:12;;;;;;;0.20;0.20;;;;;;;17.80;70.93;100746.75;5012411;28;20029;-65
2023/08/31 03:51:38;;;;;;;0.20;0.20;;;;;;;17.65;71.21;100749.50;5031100;28;20047;-65
2023/08/31 03:54:03;;;;;;;0.10;0.10;;;;;;;17.64;71.86;100745.97;5030784;28;20037;-65
2023/08/31 03:56:28;;;;;;;0.10;0.10;;;;;;;17.40;73.15;100747.56;5030925;28;20040;-65
2023/08/31 03:58:54;;;;;;;0.10;0.10;;;;;;;17.58;71.92;100740.78;5031383;28;20030;-65
2023/08/31 04:01:19;;;;;;;0.20;0.20;;;;;;;17.70;71.56;100744.84;5024892;28;20038;-65
2023/08/31 04:03:45;;;;;;;0.20;0.20;;;;;;;18.11;69.94;100745.56;5016891;28;20167;-66
2023/08/31 04:06:10;;;;;;;0.20;0.20;;;;;;;17.82;71.75;100753.53;5019998;28;20053;-65
2023/08/31 04:08:36;;;;;;;0.13;0.13;;;;;;;17.65;72.68;100757.66;5018618;28;20038;-67
2023/08/31 04:11:01;;;;;;;0.20;0.20;;;;;;;17.70;72.06;100754.91;5016382;28;20590;-65
2023/08/31 04:13:26;;;;;;;0.20;0.20;;;;;;;17.42;73.24;100761.69;5029875;28;20041;-64
2023/08/31 04:15:55;;;;;;;0.25;0.25;;;;;;;17.89;72.60;100762.22;5030191;28;20029;-65
2023/08/31 04:18:21;;;;;;;0.20;0.20;;;;;;;17.93;71.50;100759.75;5029388;28;20048;-65
2023/08/31 04:20:51;;;;;;;0.20;0.20;;;;;;;17.88;72.04;100765.22;5030388;28;20033;-64
2023/08/31 04:23:17;;;;;;;0.10;0.10;;;;;;;17.72;72.83;100767.16;5030313;28;20087;-65
2023/08/31 04:25:42;;;;;;;0.10;0.10;;;;;;;17.62;73.85;100760.91;5030846;28;20029;-65
2023/08/31 04:28:08;;;;;;;0.10;0.10;;;;;;;18.00;72.51;100768.47;5021923;28;20104;-65
2023/08/31 04:30:33;;;;;;;0.10;0.10;;;;;;;17.67;73.51;100761.69;5030033;28;20045;-65
2023/08/31 04:32:59;;;;;;;0.10;0.10;;;;;;;17.81;72.14;100770.94;5030043;28;20029;-65
2023/08/31 04:35:24;;;;;;;0.10;0.10;;;;;;;17.81;72.77;100768.22;5029983;28;20041;-65
2023/08/31 04:37:49;;;;;;;0.10;0.10;;;;;;;17.59;74.60;100767.72;5036022;28;20061;-65
2023/08/31 04:40:15;;;;;;;0.20;0.20;;;;;;;17.74;73.33;100777.72;5049605;28;20394;-65
2023/08/31 04:42:40;;;;;;;0.15;0.15;;;;;;;17.22;75.30;100780.69;5049711;28;20515;-65
2023/08/31 04:45:06;;;;;;;0.10;0.10;;;;;;;17.57;74.03;100775.31;5053738;28;20029;-66
2023/08/31 04:47:32;;;;;;;0.10;0.10;;;;;;;17.95;74.07;100763.00;5069688;28;20047;-66
2023/08/31 04:49:59;;;;;;;0.20;0.20;;;;;;;17.64;74.47;100767.69;5070098;28;20111;-65
2023/08/31 04:52:24;;;;;;;0.10;0.10;;;;;;;17.92;73.40;100771.72;5051133;28;20048;-64
2023/08/31 04:54:50;;;;;;;0.15;0.15;;;;;;;17.77;73.78;100775.28;5055656;28;20045;-66
2023/08/31 04:57:15;;;;;;;0.15;0.15;;;;;;;17.58;74.38;100778.84;5048703;28;20325;-65
2023/08/31 04:59:41;;;;;;;0.10;0.10;;;;;;;17.90;74.01;100788.34;5031483;28;20033;-65
2023/08/31 05:02:06;;;;;;;0.10;0.10;;;;;;;17.73;74.92;100790.50;5049937;28;20370;-66
2023/08/31 05:04:31;;;;;;;0.10;0.10;;;;;;;17.86;74.59;100792.69;5049362;28;20040;-65
2023/08/31 05:06:57;;;;;;;0.20;0.20;;;;;;;17.90;73.57;100791.03;5048972;28;20678;-66
2023/08/31 05:09:24;;;;;;;0.28;0.28;;;;;;;17.74;74.74;100792.16;5049507;28;20052;-65
2023/08/31 05:11:50;;;;;;;0.20;0.20;;;;;;;17.83;73.25;100793.22;5048353;28;20318;-66
2023/08/31 05:14:15;;;;;;;0.10;0.10;;;;;;;18.52;70.80;100792.50;5048909;28;20027;-65
2023/08/31 05:16:40;;;;;;;0.20;0.20;;;;;;;18.05;72.07;100801.06;5049016;28;20052;-65
2023/08/31 05:19:06;;;;;;;0.17;0.17;;;;;;;17.72;73.56;100807.91;5030046;28;20563;-66
2023/08/31 05:21:31;;;;;;;0.10;0.10;;;;;;;17.70;74.06;100815.53;5048691;28;20501;-66
2023/08/31 05:23:56;;;;;;;0.20;0.20;;;;;;;17.74;73.57;100823.94;5049116;28;20025;-65
2023/08/31 05:26:22;;;;;;;0.10;0.10;;;;;;;17.73;74.81;100817.69;5050049;28;20028;-66
2023/08/31 05:28:48;;;;;;;0.10;0.10;;;;;;;17.71;74.40;100824.50;5049844;28;20441;-66
2023/08/31 05:31:13;;;;;;;0.10;0.10;;;;;;;17.59;73.55;100829.38;5048150;28;20538;-64
2023/08/31 05:33:39;;;;;;;0.10;0.10;;;;;;;17.48;74.86;100836.69;5048176;28;20049;-64
2023/08/31 05:36:04;;;;;;;0.10;0.10;;;;;;;17.77;75.24;100831.56;5048214;28;20061;-64
2023/08/31 05:38:30;;;;;;;0.10;0.10;;;;;;;18.01;73.64;100832.63;5047958;28;20063;-65
2023/08/31 05:41:06;;;;;;;0.20;0.20;;;;;;;18.56;72.92;100826.25;5045837;28;20082;-66
2023/08/31 05:43:36;;;;;;;0.15;0.15;;;;;;;18.64;71.09;100831.13;5040860;28;20037;-65
2023/08/31 05:46:02;;;;;;;0.20;0.20;;;;;;;18.13;72.41;100831.25;5037693;28;20408;-66
2023/08/31 05:48:27;;;;;;;0.10;0.10;;;;;;;18.73;70.93;100838.41;5036607;28;20033;-66
2023/08/31 05:50:54;;;;;;;0.10;0.10;;;;;;;18.74;70.79;100840.06;5053135;28;20545;-65
2023/08/31 05:53:20;;;;;;;0.10;0.10;;;;;;;18.21;73.27;100844.28;5045344;28;20388;-64
2023/08/31 05:55:45;;;;;;;0.10;0.10;;;;;;;18.53;71.67;100845.88;5045412;28;20029;-64
2023/08/31 05:58:11;;;;;;;0.17;0.17;;;;;;;18.63;70.95;100845.84;5043887;28;20037;-64
2023/08/31 06:00:36;;;;;;;0.20;0.20;;;;;;;18.62;70.98;100842.28;5043683;28;20460;-65
2023/08/31 06:03:04;;;;;;;0.10;0.10;;;;;;;18.64;72.01;100844.72;5044552;28;20044;-65
2023/08/31 06:05:31;;;;;;;0.20;0.20;;;;;;;19.33;69.25;100848.22;5044759;28;20036;-65
2023/08/31 06:07:56;;;;;;;0.10;0.10;;;;;;;18.91;70.58;100850.59;5037886;28;20037;-65
2023/08/31 06:10:23;;;;;;;0.10;0.10;;;;;;;18.44;73.00;100861.94;5046020;28;20051;-65
2023/08/31 06:12:50;;;;;;;0.20;0.20;;;;;;;18.16;74.21;100857.09;5052312;28;20048;-64
2023/08/31 06:15:15;;;;;;;0.10;0.10;;;;;;;19.04;70.82;100860.91;5050031;28;20087;-65
2023/08/31 06:17:41;;;;;;;0.20;0.20;;;;;;;18.74;71.92;100858.28;5048882;28;20036;-65
2023/08/31 06:20:08;;;;;;;0.08;0.08;;;;;;;18.87;71.56;100861.22;5052654;28;20601;-65
2023/08/31 06:22:33;;;;;;;0.20;0.20;;;;;;;18.27;73.85;100872.28;5052810;28;20096;-66
2023/08/31 06:24:59;;;;;;;0.10;0.10;;;;;;;19.19;70.58;100868.97;5051966;28;20542;-65
2023/08/31 06:27:25;;;;;;;0.10;0.10;;;;;;;18.40;73.38;100875.25;5052395;28;20036;-64
2023/08/31 06:29:50;;;;;;;0.10;0.10;;;;;;;19.06;72.04;100869.59;5051941;28;20021;-65
2023/08/31 06:32:17;;;;;;;0.10;0.10;;;;;;;19.54;70.48;100867.94;5043660;28;20526;-66
2023/08/31 06:34:42;;;;;;;0.10;0.10;;;;;;;18.99;71.79;100879.97;5053016;28;20025;-65
2023/08/31 06:37:08;;;;;;;0.20;0.20;;;;;;;19.56;71.62;100873.94;5052091;28;20028;-65
2023/08/31 06:39:33;;;;;;;0.10;0.10;;;;;;;19.48;71.75;100880.00;5071688;28;20043;-64
2023/08/31 06:41:59;;;;;;;0.10;0.10;;;;;;;19.28;72.29;100867.31;5071442;28;20427;-66
2023/08/31 06:44:24;;;;;;;0.10;0.10;;;;;;;19.52;71.32;100879.16;5061755;28;20021;-66
2023/08/31 06:46:50;;;;;;;0.20;0.20;;;;;;;19.40;71.55;100881.41;5051587;28;20032;-65
2023/08/31 06:49:15;;;;;;;0.10;0.10;;;;;;;19.78;70.78;100879.78;5047241;28;20045;-65
2023/08/31 06:51:40;;;;;;;0.10;0.10;;;;;;;19.27;71.72;100879.28;5046743;28;20033;-65
2023/08/31 06:54:06;;;;;;;0.10;0.10;;;;;;;19.43;70.55;100894.47;5044615;28;20060;-65
2023/08/31 06:56:35;;;;;;;0.10;0.10;;;;;;;19.73;69.49;100891.56;5048564;28;20423;-66
2023/08/31 06:59:02;;;;;;;0.10;0.10;;;;;;;20.20;68.58;100896.38;5051525;28;20469;-64
2023/08/31 07:01:28;;;;;;;0.10;0.10;;;;;;;20.29;68.74;100902.00;5051182;28;20029;-64
2023/08/31 07:03:53;;;;;;;0.20;0.20;;;;;;;20.47;67.94;100902.09;5050757;28;20048;-64
2023/08/31 07:06:19;;;;;;;0.10;0.10;;;;;;;19.97;69.08;100913.44;5050991;28;20040;-66
2023/08/31 07:08:45;;;;;;;0.10;0.10;;;;;;;20.70;67.33;100909.47;5050849;28;20143;-66
2023/08/31 07:11:11;;;;;;;0.20;0.20;;;;;;;20.19;68.45;100913.81;5050253;28;20467;-64
2023/08/31 07:13:36;;;;;;;0.10;0.10;;;;;;;19.96;68.47;100914.53;5048292;28;20021;-64
2023/08/31 07:16:02;;;;;;;0.10;0.10;;;;;;;20.16;67.76;100914.38;5050352;28;20231;-65
2023/08/31 07:18:27;;;;;;;0.20;0.20;;;;;;;19.77;68.73;100919.84;5050498;28;20040;-64
2023/08/31 07:20:52;;;;;;;0.20;0.20;;;;;;;20.22;66.48;100918.72;5049374;28;20040;-65
2023/08/31 07:23:18;;;;;;;0.17;0.17;;;;;;;20.34;66.44;100915.59;5050285;28;20485;-64
2023/08/31 07:25:43;;;;;;;0.20;0.20;;;;;;;20.79;64.64;100926.06;5050516;28;20025;-65
2023/08/31 07:28:10;;;;;;;0.20;0.20;;;;;;;20.67;65.02;100925.63;5050414;28;20033;-65
2023/08/31 07:30:35;;;;;;;0.10;0.10;;;;;;;20.64;65.55;100921.56;5050277;28;20025;-65
2023/08/31 07:33:03;;;;;;;0.10;0.10;;;;;;;20.01;67.43;100920.78;5050049;28;20408;-64
2023/08/31 07:35:29;;;;;;;0.10;0.10;;;;;;;20.69;64.64;100931.63;5049942;28;20033;-65
2023/08/31 07:37:55;;;;;;;0.10;0.10;;;;;;;20.02;67.06;100929.78;5043322;28;20050;-67
2023/08/31 07:40:20;;;;;;;0.10;0.10;;;;;;;20.66;65.88;100929.44;5029999;28;20036;-64
2023/08/31 07:42:45;;;;;;;0.10;0.10;;;;;;;21.30;63.64;100932.56;5030439;28;20151;-64
2023/08/31 07:45:11;;;;;;;0.10;0.10;;;;;;;20.64;67.04;100918.00;5030134;28;20037;-66
2023/08/31 07:47:36;;;;;;;0.10;0.10;;;;;;;20.09;68.66;100925.63;5019690;28;20030;-64
2023/08/31 07:50:02;;;;;;;0.10;0.10;;;;;;;20.83;66.05;100929.84;5031003;28;20466;-64
2023/08/31 07:52:27;;;;;;;0.05;0.05;;;;;;;20.92;65.60;100934.34;5030127;28;20048;-64
2023/08/31 07:54:53;;;;;;;0.10;0.10;;;;;;;21.62;63.70;100935.34;5030347;28;20056;-65
2023/08/31 07:57:19;;;;;;;0.10;0.10;;;;;;;20.82;66.21;100931.75;5030166;28;20037;-65
2023/08/31 07:59:44;;;;;;;0.10;0.10;;;;;;;20.89;65.35;100942.34;5029404;28;20083;-66
2023/08/31 08:02:09;;;;;;;0.10;0.10;;;;;;;21.03;64.73;100945.22;5030042;28;20446;-66
2023/08/31 08:04:35;;;;;;;0.10;0.10;;;;;;;22.23;62.38;100942.66;5030533;28;20025;-65
2023/08/31 08:07:00;;;;;;;0.10;0.10;;;;;;;22.57;59.89;100945.88;5029592;28;20516;-64
2023/08/31 08:09:26;;;;;;;0.10;0.10;;;;;;;22.03;61.08;100952.03;5029833;28;20037;-66
2023/08/31 08:11:51;;;;;;;0.10;0.10;;;;;;;22.00;61.92;100955.34;5029679;28;20041;-65
2023/08/31 08:14:16;;;;;;;0.10;0.10;;;;;;;22.11;61.51;100950.53;5011841;28;20103;-65
2023/08/31 08:16:42;;;;;;;0.03;0.03;;;;;;;21.69;62.16;100948.69;5030220;28;20350;-64
2023/08/31 08:19:08;;;;;;;0.10;0.10;;;;;;;21.58;62.52;100960.88;5029730;28;20552;-65
2023/08/31 08:21:34;;;;;;;0.10;0.10;;;;;;;21.95;60.82;100962.81;5029809;28;20025;-65
2023/08/31 08:23:59;;;;;;;0.10;0.10;;;;;;;21.08;63.84;100956.88;5011547;28;20473;-65
2023/08/31 08:26:25;;;;;;;0.10;0.10;;;;;;;21.13;63.50;100961.47;5029106;28;20025;-65
2023/08/31 08:28:50;;;;;;;0.10;0.10;;;;;;;21.20;63.04;100973.69;5029524;28;20021;-65
2023/08/31 08:31:16;;;;;;;0.10;0.10;;;;;;;20.75;64.69;100968.72;5026583;28;20029;-67
2023/08/31 08:33:41;;;;;;;0.10;0.10;;;;;;;21.43;63.21;100972.81;5029321;28;20544;-65
2023/08/31 08:36:06;;;;;;;0.10;0.10;;;;;;;21.28;63.85;100978.50;5029428;28;20025;-65
2023/08/31 08:38:32;;;;;;;0.10;0.10;;;;;;;21.06;64.17;100972.75;5040497;28;20053;-64
2023/08/31 08:40:57;;;;;;;0.10;0.10;;;;;;;21.03;63.64;100976.06;5049388;28;20504;-65
2023/08/31 08:43:26;;;;;;;0.10;0.10;;;;;;;20.73;65.19;100979.94;5048904;28;20083;-66
2023/08/31 08:45:54;;;;;;;0.10;0.10;;;;;;;21.79;62.93;100971.25;5046485;28;20028;-64
2023/08/31 08:48:20;;;;;;;0.10;0.10;;;;;;;22.24;60.71;100977.94;5049003;28;20037;-65
2023/08/31 08:50:46;;;;;;;0.10;0.10;;;;;;;22.15;61.45;100981.66;5048178;28;20461;-65
2023/08/31 08:53:13;;;;;;;0.05;0.05;;;;;;;20.98;63.47;100985.13;5048945;28;20124;-64
2023/08/31 08:55:40;;;;;;;0.00;0.00;;;;;;;21.41;61.86;100985.97;5050058;28;20033;-66
2023/08/31 08:58:06;;;;;;;0.05;0.05;;;;;;;21.78;60.86;100982.44;5049401;28;20451;-65
2023/08/31 09:00:33;;;;;;;0.10;0.10;;;;;;;21.99;61.71;100977.53;5049243;28;20033;-65
2023/08/31 09:03:00;;;;;;;0.10;0.10;;;;;;;22.26;59.38;100991.31;5049247;28;20155;-66
2023/08/31 09:05:26;;;;;;;0.00;0.00;;;;;;;21.95;60.78;100990.19;5049190;28;20358;-64
2023/08/31 09:08:07;;;;;;;0.10;0.10;;;;;;;21.87;61.60;100985.38;5049493;28;20032;-66
2023/08/31 09:10:44;;;;;;;0.10;0.10;;;;;;;21.91;61.46;100986.41;5049538;28;20052;-64
2023/08/31 09:13:15;;;;;;;0.10;0.10;;;;;;;21.82;60.98;100987.06;5030547;28;20527;-63
2023/08/31 09:15:41;;;;;;;;;;;;;;;21.96;60.79;100986.31;5049819;28;20366;-66
2023/08/31 09:18:06;;;;;;;0.10;0.10;;;;;;;21.63;62.49;100993.63;5049106;28;19913;-65
2023/08/31 09:20:42;;;;;;;0.10;0.10;;;;;;;22.00;60.73;100982.69;5048967;28;20044;-64
2023/08/31 09:23:08;;;;;;;0.10;0.10;;;;;;;22.02;60.21;100994.16;5048943;28;20060;-65
2023/08/31 09:25:41;;;;;;;0.05;0.05;;;;;;;21.99;59.68;100997.50;5031490;28;20071;-64
2023/08/31 09:28:06;;;;;;;0.10;0.10;;;;;;;21.86;60.58;101011.91;5067568;28;20368;-65
2023/08/31 09:30:36;;;;;;;0.05;0.05;;;;;;;22.37;58.67;101001.81;5068775;28;20028;-65
2023/08/31 09:33:04;;;;;;;0.10;0.10;;;;;;;21.72;59.73;101003.59;5050880;28;20033;-65
2023/08/31 09:35:30;;;;;;;0.10;0.10;;;;;;;22.52;58.48;100990.63;5049348;28;20029;-64
2023/08/31 09:37:59;;;;;;;0.10;0.10;;;;;;;23.34;56.31;100999.78;5049072;28;20056;-64
2023/08/31 09:40:24;;;;;;;0.10;0.10;;;;;;;23.17;57.56;100994.06;5048740;28;20443;-64
2023/08/31 09:42:50;;;;;;;0.05;0.05;;;;;;;22.85;58.56;101002.38;5047942;28;20025;-63
2023/08/31 09:45:32;;;;;;;0.10;0.10;;;;;;;22.56;58.75;100999.81;5048522;28;20095;-64
2023/08/31 09:48:00;;;;;;;0.00;0.00;;;;;;;22.84;58.36;100994.44;5048638;28;20033;-64
2023/08/31 09:50:28;;;;;;;0.08;0.08;;;;;;;23.72;55.38;100994.03;5048620;28;20281;-64
2023/08/31 09:52:56;;;;;;;0.10;0.10;;;;;;;22.55;57.81;100986.44;5048935;28;20029;-65
2023/08/31 09:55:25;;;;;;;0.00;0.00;;;;;;;23.54;56.42;100993.03;5048505;28;20120;-65
2023/08/31 09:57:52;;;;;;;0.05;0.05;;;;;;;22.94;57.45;100989.56;5048340;28;20025;-65
2023/08/31 10:00:18;;;;;;;0.10;0.10;;;;;;;22.43;56.28;100983.34;5048558;28;20087;-66
2023/08/31 10:02:44;;;;;;;0.00;0.00;;;;;;;21.78;57.03;100999.69;5048475;28;20029;-64
2023/08/31 10:05:10;;;;;;;0.10;0.10;;;;;;;22.10;56.16;101009.91;5048480;28;20322;-65
2023/08/31 10:07:36;;;;;;;0.10;0.10;;;;;;;22.60;56.33;101008.31;5048851;28;20021;-64
2023/08/31 10:10:02;;;;;;;0.03;0.03;;;;;;;22.15;58.97;101012.56;5048163;28;20037;-66
2023/08/31 10:12:27;;;;;;;0.00;0.00;;;;;;;21.99;59.02;101005.72;5048054;28;20568;-66
2023/08/31 10:14:56;;;;;;;0.10;0.10;;;;;;;22.23;59.13;101008.38;5048442;28;20535;-67
2023/08/31 10:17:22;;;;;;;0.10;0.10;;;;;;;22.36;59.09;101007.59;5048304;28;20021;-65
2023/08/31 10:19:47;;;;;;;0.10;0.10;;;;;;;22.00;59.79;101012.81;5048570;28;20024;-65
2023/08/31 10:22:13;;;;;;;0.10;0.10;;;;;;;23.12;56.96;101012.53;5049562;28;20040;-65
2023/08/31 10:25:11;;;;;;;0.10;0.10;;;;;;;23.24;58.04;101016.41;5068322;28;20040;-65
2023/08/31 10:27:42;;;;;;;0.10;0.10;;;;;;;22.44;59.63;101024.16;4966773;28;20089;-66
2023/08/31 10:30:13;;;;;;;;;;;;;;;22.87;57.08;101022.06;4967223;28;20083;-65
2023/08/31 10:32:38;;;;;;;0.00;0.00;;;;;;;21.89;59.53;101029.69;4951307;28;20291;-65
2023/08/31 10:35:05;;;;;;;0.10;0.10;;;;;;;22.21;58.83;101022.31;4947953;29;20036;-63
2023/08/31 10:37:31;;;;;;;0.10;0.10;;;;;;;21.88;58.83;101030.81;4946964;28;20047;-63
2023/08/31 10:40:11;;;;;;;0.10;0.10;;;;;;;23.09;57.00;101016.72;4931408;29;20117;-65
2023/08/31 10:42:47;;;;;;;0.00;0.00;;;;;;;23.42;56.48;101018.25;4946983;29;20555;-65
2023/08/31 10:45:19;;;;;;;0.00;0.00;;;;;;;22.66;57.93;101023.56;4962942;28;20066;-65
2023/08/31 10:47:47;;;;;;;0.10;0.10;;;;;;;23.79;53.62;101005.38;4966842;28;20061;-65
2023/08/31 10:50:23;;;;;;;0.10;0.10;;;;;;;24.96;51.68;101010.47;4966671;28;20348;-65
2023/08/31 10:52:49;;;;;;;0.10;0.10;;;;;;;23.21;56.90;101017.00;4958147;28;20031;-65
2023/08/31 10:55:15;;;;;;;0.10;0.10;;;;;;;22.92;56.53;101015.69;4948069;28;20066;-64
2023/08/31 10:57:41;;;;;;;0.10;0.10;;;;;;;23.72;55.99;101005.00;4950889;28;20036;-65
2023/08/31 11:00:08;;;;;;;0.05;0.05;;;;;;;24.35;52.54;101000.22;4950813;28;20077;-65
2023/08/31 11:02:33;;;;;;;0.10;0.10;;;;;;;23.43;55.46;101002.59;4968530;28;20511;-67
2023/08/31 11:05:05;;;;;;;0.10;0.10;;;;;;;23.71;54.17;101012.41;5032431;28;20136;-66
2023/08/31 11:07:31;;;;;;;0.10;0.10;;;;;;;24.20;52.08;101004.16;5031722;28;20043;-66
2023/08/31 11:10:10;;;;;;;0.00;0.00;;;;;;;23.98;53.21;101000.56;5031178;28;20034;-65
2023/08/31 11:12:35;;;;;;;0.00;0.00;;;;;;;23.85;51.63;100995.91;5013272;28;20037;-66
2023/08/31 11:15:01;;;;;;;0.00;0.00;;;;;;;24.58;49.70;101001.00;5031946;28;20076;-65
2023/08/31 11:17:27;;;;;;;0.00;0.00;;;;;;;23.93;50.31;101028.94;5051301;28;20040;-64
2023/08/31 11:19:52;;;;;;;0.00;0.00;;;;;;;23.94;50.89;101007.78;5033808;28;20075;-66
2023/08/31 11:22:18;;;;;;;0.00;0.00;;;;;;;23.81;52.60;101017.69;5051202;28;20049;-64
2023/08/31 11:24:44;;;;;;;0.10;0.10;;;;;;;24.25;50.96;101015.00;5051013;28;20112;-65
2023/08/31 11:27:12;;;;;;;0.00;0.00;;;;;;;24.65;51.10;101013.19;5050852;28;20040;-66